»·PEaware :: ARH1 PHNL-KSFO

ARH1 :: PHNL-KSFO

FLIGHT INFORMATION

Flight Status: Arrived
Operator: Unknown
More flights by this operator :: More flights under this callsign
Pilot: Jason B. (17)
Aircraft: LOCKHEED L-049/749/1049 CONSTELLATION
(CONI)
More flights by this aircraft type
Origin: PHNL Honolulu Intl
United States
Destination: KSFO San Francisco Intl
United States
More flights between these airports :: More routes between these airports
Route: +MKK4 CLUTS R465 CINNY HADLY SAU
File this flight plan on PilotEdge
Remarks:
Altitude:
(Current/Filed)
190ft
Speed:
(Current/Filed)
284kts
Departed: 17-Mar-12 01:42 PM
Arrived: 17-Mar-12 02:28 PM
Distance/Time
Traveled:
3903nm/0:46
Distance/Time
To Go:
Arrived

Flight Plot

Page will automatically refresh every two minutes.

Flight plan parsing failed; only flown route is shown


Map Options




Map Legend


Flown Route
Filed Route
Departure Airport
Arrival Airport
Navaid (VOR, NDB)
Fix

Horizontal Profiles

Position Reports

Time Latitude Longitude Heading Altitude Ground
Speed
17-Mar-12 13:40 36.073239 -125.738614 55 19185ft 390kts
17-Mar-12 13:41 36.111996 -125.635446 84 19191ft 382kts
17-Mar-12 13:42 36.119088 -125.532505 94 19190ft 376kts
17-Mar-12 13:43 36.104083 -125.414304 121 19175ft 350kts
17-Mar-12 13:44 36.076662 -125.301046 120 19174ft 349kts
17-Mar-12 13:45 36.048822 -125.185978 120 19177ft 349kts
17-Mar-12 13:46 36.021453 -125.070499 112 19165ft 359kts
17-Mar-12 13:47 36.052622 -124.946009 76 19182ft 386kts
17-Mar-12 13:48 36.086910 -124.819837 75 19184ft 387kts
17-Mar-12 13:49 36.121277 -124.693309 74 19187ft 388kts
17-Mar-12 13:50 36.155569 -124.566471 76 19188ft 389kts
17-Mar-12 13:51 36.189758 -124.439311 77 19184ft 389kts
17-Mar-12 13:52 36.223602 -124.312247 75 19176ft 387kts
17-Mar-12 13:53 36.257357 -124.185548 75 19180ft 387kts
17-Mar-12 13:54 36.291070 -124.058321 76 19182ft 387kts
17-Mar-12 13:55 36.324566 -123.931422 76 19185ft 387kts
17-Mar-12 13:56 36.362944 -123.809575 51 19163ft 391kts
17-Mar-12 13:57 36.437221 -123.721443 39 19190ft 387kts
17-Mar-12 13:58 36.515792 -123.629557 39 18668ft 381kts
17-Mar-12 13:59 36.557946 -123.535138 64 18348ft 369kts
17-Mar-12 14:01 36.625782 -123.360168 65 17635ft 314kts
17-Mar-12 14:02 36.662361 -123.265471 64 17121ft 299kts
17-Mar-12 14:03 36.708870 -123.184628 45 16613ft 288kts
17-Mar-12 14:04 36.752809 -123.127303 44 16502ft 268kts
17-Mar-12 14:05 36.793254 -123.074502 44 16514ft 281kts
17-Mar-12 14:06 36.848692 -123.001955 45 16513ft 294kts
17-Mar-12 14:07 36.901626 -122.932144 51 14577ft 333kts
17-Mar-12 14:08 36.965647 -122.847416 44 13024ft 324kts
17-Mar-12 14:09 37.023576 -122.771674 39 12535ft 287kts
17-Mar-12 14:10 37.076039 -122.703222 38 11907ft 263kts
17-Mar-12 14:11 37.123720 -122.640641 38 11402ft 238kts
17-Mar-12 14:12 37.167155 -122.583344 38 10781ft 225kts
17-Mar-12 14:13 37.209781 -122.526831 38 10015ft 222kts
17-Mar-12 14:14 37.251591 -122.471103 40 9273ft 218kts
17-Mar-12 14:15 37.291778 -122.415280 41 8419ft 217kts
17-Mar-12 14:16 37.332117 -122.360601 40 7651ft 210kts
17-Mar-12 14:17 37.372571 -122.307065 40 6703ft 214kts
17-Mar-12 14:18 37.403278 -122.255009 65 5946ft 222kts
17-Mar-12 14:19 37.425570 -122.182803 64 5012ft 221kts
17-Mar-12 14:20 37.460148 -122.134430 355 4135ft 202kts
17-Mar-12 14:21 37.515786 -122.144820 321 3928ft 210kts
17-Mar-12 14:22 37.543213 -122.197841 285 3117ft 146kts
17-Mar-12 14:23 37.562753 -122.237224 300 2209ft 124kts
17-Mar-12 14:24 37.578795 -122.274627 299 1469ft 118kts
17-Mar-12 14:25 37.593849 -122.310715 300 858ft 115kts
17-Mar-12 14:26 37.607897 -122.343327 295 306ft 106kts
17-Mar-12 14:27 37.618646 -122.369378 298 24ft 34kts
17-Mar-12 14:28 37.621693 -122.376648 297 24ft 26kts
17-Mar-12 14:29 37.623880 -122.380442 27 24ft 0kts
17-Mar-12 14:30 37.626431 -122.379553 318 24ft 18kts
17-Mar-12 14:31 37.626901 -122.380411 299 24ft 0kts
17-Mar-12 14:32 33.651875 -84.421674 270 1037ft 0kts

Navigation Log

Ident Type
Flight plan parsing failed, navigation log unavailable